Latest Weather Observations for Territory Grape Farm

IDD60801

Issued at 6:35 pm CST Wednesday 17 September 2014 (issued every 30 minutes, with the page automatically refreshed every 10 minutes)

About weather observations | Map of weather stations | Latest weather observations for NT | Other Formats
Station Details ID: 015643 Name: TERRITORY GRAPE FARM Lat: -22.45 Lon: 133.64 Height: 565.6 m
Data from the previous 72 hours. | See also: Recent months at Territory Grape Farm
Date/Time
CST
Temp
°C
App
Temp
°C
Dew
Point
Rel
Hum
%
Delta-T
°C
Wind Press
QNH
hPa
Press
MSL
hPa
Rain
since 9 am
mm
Dir
 
Spd
km/h
Gust
km/h
Spd
kts
Gust
kts
17/06:30pm 26.9 23.3 -1.9 15 13.3 E 7 9 4 5 1017.9 1015.5 0.0
17/06:00pm 29.1 25.1 -2.1 13 14.6 E 9 13 5 7 1017.7 1015.2 0.0
17/05:30pm 29.9 26.4 -2.6 12 15.2 ENE 6 13 3 7 1017.4 1014.9 0.0
17/05:00pm 30.1 26.7 -2.4 12 15.3 NNE 6 13 3 7 1017.3 1014.8 0.0
17/04:30pm 30.2 26.8 -2.3 12 15.3 E 6 13 3 7 1017.1 1014.6 0.0
17/04:00pm 30.0 26.3 -2.5 12 15.3 N 7 19 4 10 1017.1 1014.6 0.0
17/03:30pm 30.3 26.7 -2.2 12 15.4 E 7 15 4 8 1017.2 1014.7 0.0
17/03:00pm 30.1 25.5 -1.3 13 15.1 NE 13 24 7 13 1017.6 1015.1 0.0
17/02:30pm 29.7 25.4 -1.6 13 14.9 NE 11 24 6 13 1017.9 1015.5 0.0
17/02:00pm 28.9 23.9 -1.2 14 14.4 NE 15 24 8 13 1018.5 1016.0 0.0
17/01:30pm 29.7 24.9 0.3 15 14.4 ENE 15 24 8 13 1018.9 1016.4 0.0
17/01:00pm 28.1 22.9 -0.1 16 13.6 E 17 30 9 16 1019.2 1016.7 0.0
17/12:30pm 27.9 22.1 -0.2 16 13.5 ENE 20 32 11 17 1019.4 1017.0 0.0
17/12:00pm 27.6 21.1 0.4 17 13.2 E 24 35 13 19 1019.9 1017.5 0.0
17/11:47am 26.2 18.9 0.0 18 12.5 ENE 28 48 15 26 1020.2 1017.7 0.0
17/11:30am 26.4 19.9 0.2 18 12.5 E 24 35 13 19 1020.5 1018.0 0.0
17/11:00am 25.5 19.5 0.9 20 11.9 E 22 33 12 18 1021.0 1018.6 0.0
17/10:30am 24.6 17.7 0.2 20 11.5 E 26 33 14 18 1021.3 1018.9 0.0
17/10:00am 23.3 16.4 0.4 22 10.8 ESE 26 33 14 18 1021.5 1019.1 0.0
17/09:30am 22.6 14.6 0.4 23 10.4 E 32 39 17 21 1021.6 1019.2 0.0
17/09:00am 21.6 14.3 0.2 24 9.9 ESE 28 37 15 20 1021.4 1019.0 0.0
17/08:30am 20.8 14.3 0.1 25 9.5 ESE 24 33 13 18 1021.1 1018.7 0.0
17/08:00am 19.5 13.3 0.0 27 8.8 ESE 22 30 12 16 1020.7 1018.2 0.0
17/07:30am 17.8 13.3 0.0 30 7.9 E 13 19 7 10 1020.1 1017.6 0.0
17/07:28am 17.7 13.3 0.4 31 7.8 E 13 19 7 10 1020.1 1017.6 0.0
17/07:00am 12.7 9.4 -0.9 39 5.7 E 6 9 3 5 1019.5 1017.1 0.0
17/06:30am 12.2 9.3 -1.3 39 5.6 E 4 6 2 3 1019.1 1016.6 0.0
17/06:00am 12.1 9.1 -2.1 37 5.7 ESE 4 6 2 3 1018.6 1016.1 0.0
17/05:30am 14.0 10.8 -0.8 36 6.3 SE 6 7 3 4 1018.3 1015.8 0.0
17/05:00am 13.8 10.5 -1.0 36 6.3 SSE 6 6 3 3 1017.7 1015.2 0.0
17/04:30am 14.9 11.7 -0.8 34 6.7 SE 6 7 3 4 1017.2 1014.7 0.0
17/04:00am 15.5 11.8 -0.3 34 6.9 SE 9 11 5 6 1016.9 1014.4 0.0
17/03:30am 13.9 11.5 -0.2 38 6.1 NNE 2 4 1 2 1016.6 1014.1 0.0
17/03:00am 14.3 11.0 -1.3 34 6.6 NNE 6 7 3 4 1016.4 1013.9 0.0
17/02:30am 15.9 12.6 -1.2 31 7.3 SE 6 6 3 3 1017.0 1014.5 0.0
17/02:00am 16.8 13.5 -0.9 30 7.7 SE 6 7 3 4 1017.2 1014.7 0.0
17/01:30am 16.8 13.4 -0.9 30 7.7 ESE 7 7 4 4 1017.3 1014.8 0.0
17/01:00am 17.7 13.1 -1.0 28 8.2 SE 13 20 7 11 1017.4 1014.9 0.0
17/12:30am 17.8 14.3 -1.4 27 8.3 NE 7 7 4 4 1017.2 1014.7 0.0
17/12:00am 19.1 15.6 -1.4 25 9.0 NE 7 9 4 5 1017.4 1014.9 0.0
 
Date/Time
CST
Temp
°C
App
Temp
°C
Dew
Point
Rel
Hum
%
Delta-T
°C
Wind Press
QNH
hPa
Press
MSL
hPa
Rain
since 9 am
mm
Dir
 
Spd
km/h
Gust
km/h
Spd
kts
Gust
kts
16/11:30pm 20.8 17.0 -1.1 23 9.8 NE 9 11 5 6 1017.6 1015.1 0.0
16/11:00pm 22.2 18.0 -1.1 21 10.6 ENE 11 15 6 8 1017.6 1015.1 0.0
16/10:30pm 23.0 18.1 -0.5 21 10.8 ENE 15 19 8 10 1017.6 1015.1 0.0
16/10:00pm 21.9 17.7 -0.8 22 10.3 E 11 13 6 7 1017.6 1015.1 0.0
16/09:30pm 21.4 17.5 -1.8 21 10.3 E 9 11 5 6 1017.5 1015.0 0.0
16/09:00pm 23.0 18.7 -1.8 19 11.2 ENE 11 13 6 7 1017.2 1014.7 0.0
16/08:30pm 24.5 20.1 -2.1 17 12.1 ENE 11 13 6 7 1016.9 1014.4 0.0
16/08:00pm 24.5 20.5 -2.1 17 12.1 E 9 13 5 7 1016.4 1013.9 0.0
16/07:30pm 25.7 21.7 -2.0 16 12.7 E 9 9 5 5 1016.1 1013.6 0.0
16/07:00pm 26.9 22.5 -2.8 14 13.6 ESE 11 11 6 6 1015.8 1013.3 0.0
16/06:30pm 28.3 24.2 -2.7 13 14.3 ESE 9 17 5 9 1015.5 1013.0 0.0
16/06:00pm 29.9 27.4 -3.7 11 15.4 CALM 0 2 0 1 1015.3 1012.8 0.0
16/05:30pm 30.2 26.5 -4.8 10 15.8 WNW 6 7 3 4 1015.2 1012.7 0.0
16/05:00pm 31.3 26.7 -3.9 10 16.3 N 11 19 6 10 1015.0 1012.5 0.0
16/04:30pm 31.6 28.0 -3.7 10 16.4 NE 6 11 3 6 1015.0 1012.5 0.0
16/04:00pm 31.4 27.8 -3.8 10 16.3 E 6 13 3 7 1015.0 1012.5 0.0
16/03:30pm 31.6 28.4 -3.7 10 16.4 NE 4 11 2 6 1015.2 1012.7 0.0
16/03:00pm 31.0 26.5 -2.9 11 15.9 E 11 17 6 9 1015.5 1013.0 0.0
16/02:30pm 30.8 27.1 -3.0 11 15.8 E 7 15 4 8 1015.6 1013.1 0.0
16/02:00pm 30.5 25.8 -2.1 12 15.5 NNE 13 24 7 13 1016.1 1013.6 0.0
16/01:30pm 30.5 25.5 -1.0 13 15.2 NNE 15 26 8 14 1016.6 1014.1 0.0
16/01:00pm 30.0 25.1 -0.4 14 14.8 NNE 15 30 8 16 1017.0 1014.5 0.0
16/12:30pm 29.8 25.0 0.4 15 14.5 NE 15 22 8 12 1017.7 1015.2 0.0
16/12:00pm 29.3 24.2 0.9 16 14.1 ENE 17 26 9 14 1018.3 1015.8 0.0
16/11:30am 28.0 22.5 0.7 17 13.3 NE 19 30 10 16 1018.6 1016.1 0.0
16/11:00am 27.4 22.1 1.8 19 12.7 ENE 19 26 10 14 1019.0 1016.5 0.0
16/10:30am 26.1 20.8 2.1 21 11.9 ENE 19 28 10 15 1019.3 1016.9 0.0
16/10:00am 25.2 19.5 2.6 23 11.2 E 22 28 12 15 1019.6 1017.2 0.0
16/09:30am 23.8 18.4 2.6 25 10.4 E 20 28 11 15 1019.8 1017.4 0.0
16/09:00am 22.6 16.6 3.2 28 9.6 E 24 32 13 17 1019.9 1017.5 0.0
16/08:30am 20.5 15.1 2.3 30 8.7 E 20 26 11 14 1019.7 1017.3 0.0
16/08:00am 18.2 14.3 1.3 32 7.8 ESE 11 17 6 9 1019.4 1017.0 0.0
16/07:30am 14.9 11.7 -0.8 34 6.7 SSE 6 7 3 4 1019.3 1016.9 0.0
16/07:00am 10.8 7.5 -4.4 34 5.8 SE 4 6 2 3 1018.9 1016.4 0.0
16/06:30am 11.0 7.4 -3.8 35 5.7 S 6 9 3 5 1018.6 1016.1 0.0
16/06:00am 10.3 7.8 -3.7 37 5.4 CALM 0 4 0 2 1018.2 1015.7 0.0
16/05:30am 11.3 8.9 -3.2 36 5.7 CALM 0 4 0 2 1017.9 1015.5 0.0
16/05:00am 11.0 7.3 -4.6 33 5.9 W 6 7 3 4 1017.7 1015.2 0.0
16/04:30am 12.3 9.3 -5.2 29 6.6 S 2 4 1 2 1017.3 1014.8 0.0
16/04:00am 14.1 10.6 -3.2 30 7.0 SSE 6 7 3 4 1016.8 1014.3 0.0
16/03:30am 14.3 9.7 -3.9 28 7.2 SE 11 13 6 7 1016.6 1014.1 0.0
16/03:00am 14.5 11.1 -5.3 25 7.7 S 4 6 2 3 1016.5 1014.0 0.0
16/02:30am 14.8 10.4 -6.1 23 8.0 SE 9 11 5 6 1016.5 1014.0 0.0
16/02:00am 15.6 10.4 -6.0 22 8.3 ESE 13 13 7 7 1016.6 1014.1 0.0
16/01:30am 15.8 11.0 -6.5 21 8.5 SE 11 13 6 7 1016.8 1014.3 0.0
16/01:00am 16.2 11.8 -6.1 21 8.6 ESE 9 9 5 5 1016.9 1014.4 0.0
16/12:30am 17.7 13.6 -6.2 19 9.4 ESE 7 9 4 5 1017.1 1014.6 0.0
16/12:00am 18.7 14.8 -6.8 17 10.0 ESE 6 7 3 4 1017.2 1014.7 0.0
 
Date/Time
CST
Temp
°C
App
Temp
°C
Dew
Point
Rel
Hum
%
Delta-T
°C
Wind Press
QNH
hPa
Press
MSL
hPa
Rain
since 9 am
mm
Dir
 
Spd
km/h
Gust
km/h
Spd
kts
Gust
kts
15/11:30pm 19.1 15.2 -6.5 17 10.1 SE 6 6 3 3 1017.1 1014.6 0.0
15/11:00pm 19.3 14.8 -7.1 16 10.4 ESE 9 11 5 6 1017.0 1014.5 0.0
15/10:30pm 19.4 14.5 -7.0 16 10.4 ESE 11 13 6 7 1017.0 1014.5 0.0
15/10:00pm 19.6 15.5 -6.9 16 10.5 ESE 7 11 4 6 1017.1 1014.6 0.0
15/09:30pm 20.4 16.5 -6.2 16 10.7 E 6 7 3 4 1017.0 1014.5 0.0
15/09:00pm 19.9 16.3 -7.5 15 10.7 ESE 4 6 2 3 1016.9 1014.4 0.0
15/08:30pm 20.8 16.7 -6.7 15 11.0 E 7 9 4 5 1016.6 1014.1 0.0
15/08:00pm 22.8 18.2 -8.1 12 12.3 ESE 9 11 5 6 1016.1 1013.6 0.0
15/07:30pm 24.1 19.9 -8.2 11 13.0 E 7 9 4 5 1015.8 1013.3 0.0
15/07:00pm 25.5 21.3 -8.3 10 13.8 E 7 7 4 4 1015.4 1012.9 0.0
15/06:30pm 27.9 23.3 -7.9 9 15.0 E 9 15 5 8 1015.1 1012.6 0.0
15/06:00pm 30.2 26.0 -7.7 8 16.3 ENE 7 13 4 7 1014.9 1012.4 0.0
15/05:30pm 30.9 25.1 -8.9 7 16.9 SE 15 26 8 14 1014.8 1012.3 0.0
15/05:00pm 31.4 25.6 -8.5 7 17.1 ESE 15 26 8 14 1014.6 1012.0 0.0
15/04:30pm 31.9 27.9 -8.1 7 17.3 S 6 11 3 6 1014.6 1012.0 0.0
15/04:00pm 31.7 27.1 -8.3 7 17.3 ENE 9 15 5 8 1014.7 1012.2 0.0
15/03:30pm 32.0 26.6 -8.1 7 17.4 S 13 22 7 12 1015.0 1012.5 0.0
15/03:00pm 32.2 28.0 -7.9 7 17.5 E 7 19 4 10 1015.2 1012.7 0.0
15/02:30pm 31.8 24.7 -8.2 7 17.3 ESE 22 32 12 17 1015.7 1013.2 0.0
15/02:00pm 31.6 26.2 -8.3 7 17.2 S 13 19 7 10 1016.0 1013.5 0.0
15/01:30pm 31.5 25.0 -8.4 7 17.1 SE 19 30 10 16 1016.4 1013.9 0.0
15/01:00pm 31.2 25.4 -8.6 7 17.0 SE 15 24 8 13 1016.8 1014.3 0.0
15/12:30pm 31.1 27.0 -8.7 7 16.9 E 6 19 3 10 1017.3 1014.8 0.0
15/12:00pm 29.6 25.9 -8.1 8 16.0 NNE 4 9 2 5 1017.8 1015.4 0.0
15/11:30am 29.0 24.9 -8.5 8 15.7 SSE 6 11 3 6 1018.4 1015.9 0.0
15/11:00am 28.5 24.3 -7.4 9 15.3 ESE 7 13 4 7 1018.7 1016.2 0.0
15/10:30am 27.7 23.5 -8.0 9 14.9 NE 7 15 4 8 1019.0 1016.5 0.0
15/10:00am 27.2 22.8 -5.8 11 14.3 ENE 9 13 5 7 1019.2 1016.7 0.0
15/09:30am 25.4 21.0 -6.0 12 13.3 E 9 11 5 6 1019.4 1017.0 0.0
15/09:00am 23.6 19.2 -5.4 14 12.2 E 9 15 5 8 1019.3 1016.9 0.0
15/08:30am 21.4 17.3 -6.3 15 11.3 E 7 9 4 5 1019.0 1016.5 0.0
15/08:00am 16.9 14.1 -6.8 19 9.1 CALM 0 0 0 0 1018.5 1016.0 0.0
15/07:30am 13.6 9.6 -7.7 22 7.7 SW 6 7 3 4 1018.2 1015.7 0.0
15/07:00am 10.4 6.2 -8.2 26 6.4 WSW 7 9 4 5 1017.7 1015.2 0.0
15/06:30am 9.7 5.6 -8.4 27 6.2 NNW 6 6 3 3 1017.3 1014.8 0.0
15/06:00am 9.4 6.1 -8.6 27 6.1 E 2 6 1 3 1017.1 1014.6 0.0
15/05:30am 10.5 6.8 -8.7 25 6.6 E 4 6 2 3 1016.9 1014.4 0.0
15/05:00am 11.0 6.4 -8.2 25 6.7 ESE 9 9 5 5 1016.7 1014.2 0.0
15/04:30am 11.5 6.4 -8.9 23 7.0 ESE 11 11 6 6 1016.6 1014.1 0.0
15/04:00am 12.3 7.7 -7.7 24 7.2 ESE 9 9 5 5 1016.8 1014.3 0.0
15/03:30am 13.8 9.6 -8.1 21 7.9 SSE 7 9 4 5 1016.9 1014.4 0.0
15/03:00am 12.5 7.8 -8.6 22 7.4 ESE 9 9 5 5 1017.2 1014.7 0.0
15/02:30am 14.3 9.7 -8.3 20 8.2 SSE 9 11 5 6 1017.4 1014.9 0.0
15/02:00am 14.9 10.2 -9.2 18 8.6 SSE 9 11 5 6 1017.6 1015.1 0.0
15/01:30am 15.4 10.7 -8.8 18 8.8 SSE 9 11 5 6 1017.6 1015.1 0.0
15/01:00am 14.6 9.9 -8.7 19 8.4 SE 9 9 5 5 1017.9 1015.5 0.0
15/12:30am 14.8 10.0 -10.0 17 8.7 SSE 9 11 5 6 1018.2 1015.7 0.0
15/12:00am 17.4 12.3 -9.5 15 9.8 SE 11 15 6 8 1018.2 1015.7 0.0
 
Date/Time
CST
Temp
°C
App
Temp
°C
Dew
Point
Rel
Hum
%
Delta-T
°C
Wind Press
QNH
hPa
Press
MSL
hPa
Rain
since 9 am
mm
Dir
 
Spd
km/h
Gust
km/h
Spd
kts
Gust
kts
14/11:30pm 16.8 12.1 -9.1 16 9.5 SE 9 11 5 6 1018.3 1015.8 0.0
14/11:00pm 17.2 11.3 -9.6 15 9.8 SE 15 15 8 8 1018.3 1015.8 0.0
14/10:30pm 18.9 13.9 -8.3 15 10.4 SE 11 11 6 6 1018.3 1015.8 0.0
14/10:00pm 17.6 12.1 -9.3 15 9.9 SE 13 15 7 8 1018.3 1015.8 0.0
14/09:30pm 19.1 14.0 -9.0 14 10.6 SE 11 15 6 8 1018.3 1015.8 0.0
14/09:00pm 20.6 15.9 -8.7 13 11.3 SSE 9 15 5 8 1018.2 1015.7 0.0
14/08:30pm 21.1 16.5 -8.4 13 11.5 SSW 9 13 5 7 1017.8 1015.4 0.0
14/08:00pm 21.4 17.2 -8.1 13 11.6 E 7 9 4 5 1017.3 1014.8 0.0
14/07:30pm 22.4 18.3 -8.4 12 12.1 ENE 6 7 3 4 1016.9 1014.4 0.0
14/07:00pm 23.6 19.3 -8.5 11 12.8 E 7 9 4 5 1016.7 1014.2 0.0

Other Formats:

Comma delimited format used in spreadsheet applications
http://www.bom.gov.au/fwo/IDD60801/IDD60801.94328.axf

JavaScript Object Notation format (JSON) in row-major order
http://www.bom.gov.au/fwo/IDD60801/IDD60801.94328.json